Time;durP1;ratioP1;P1;durP2;ratioP2;P2;SDS_P1;SDS_P2;PMS_P1;PMS_P2;Temp;Humidity;BMP_temperature;BMP_pressure;BME280_temperature;BME280_humidity;BME280_pressure;Samples;Min_cycle;Max_cycle;Signal;HPM_P1;HPM_P2
2023/05/10 00:02:02;;;;;;;6.53;3.25;;;;;;;17.05;75.42;100487.19;5052728;28;20056;-80
2023/05/10 00:04:30;;;;;;;7.55;3.40;;;;;;;17.18;73.92;100494.50;5052895;28;20045;-79
2023/05/10 00:06:58;;;;;;;4.25;3.67;;;;;;;17.13;74.92;100494.66;5052860;28;20395;-79
2023/05/10 00:09:26;;;;;;;5.95;3.97;;;;;;;17.02;75.01;100488.63;5034278;28;20584;-79
2023/05/10 00:11:54;;;;;;;5.55;3.90;;;;;;;17.03;74.59;100486.69;5034885;28;20052;-79
2023/05/10 00:14:22;;;;;;;4.25;3.85;;;;;;;16.93;75.95;100480.31;5051641;28;20052;-78
2023/05/10 00:16:50;;;;;;;8.57;4.15;;;;;;;16.88;78.66;100488.81;5052756;28;20475;-78
2023/05/10 00:19:18;;;;;;;4.60;4.00;;;;;;;16.78;77.80;100483.59;5052674;28;20057;-79
2023/05/10 00:21:46;;;;;;;6.10;4.40;;;;;;;16.90;76.11;100475.47;5052364;28;20052;-78
2023/05/10 00:24:14;;;;;;;6.10;4.88;;;;;;;17.15;76.11;100486.84;5032758;28;20053;-78
2023/05/10 00:26:42;;;;;;;4.78;4.25;;;;;;;16.99;76.48;100466.34;5032754;28;20042;-77
2023/05/10 00:29:10;;;;;;;6.28;4.32;;;;;;;17.04;78.29;100464.25;5015098;28;20057;-78
2023/05/10 00:31:38;;;;;;;5.43;4.38;;;;;;;16.98;77.33;100453.66;5048006;28;20407;-76
2023/05/10 00:34:05;;;;;;;4.90;3.33;;;;;;;16.95;75.91;100468.16;5034645;28;20048;-77
2023/05/10 00:36:33;;;;;;;3.90;3.60;;;;;;;16.83;75.70;100455.78;5052441;28;20508;-78
2023/05/10 00:39:03;;;;;;;4.45;3.20;;;;;;;16.87;77.31;100453.19;5052364;28;20045;-78
2023/05/10 00:41:34;;;;;;;5.80;3.35;;;;;;;16.62;76.35;100456.44;5052223;28;20052;-78
2023/05/10 00:44:04;;;;;;;3.55;3.10;;;;;;;16.46;75.85;100452.50;5018016;28;20053;-77
2023/05/10 00:46:32;;;;;;;5.35;2.75;;;;;;;16.25;74.51;100450.38;5034475;28;20045;-77
2023/05/10 00:49:00;;;;;;;3.60;2.50;;;;;;;16.25;73.67;100445.69;5034183;28;20049;-79
2023/05/10 00:51:31;;;;;;;3.28;2.67;;;;;;;16.47;72.71;100437.59;5034204;28;20037;-77
2023/05/10 00:53:59;;;;;;;2.63;2.13;;;;;;;16.18;72.02;100439.00;5052169;28;20049;-77
2023/05/10 00:56:29;;;;;;;2.63;2.42;;;;;;;16.25;73.22;100436.56;5034353;28;20040;-77
2023/05/10 00:58:57;;;;;;;3.08;2.10;;;;;;;16.11;73.05;100437.53;5051835;28;20049;-77
2023/05/10 01:01:25;;;;;;;2.80;2.53;;;;;;;16.05;73.23;100436.06;5034296;28;20041;-77
2023/05/10 01:03:55;;;;;;;3.97;2.30;;;;;;;16.06;73.57;100434.09;5033900;28;20037;-77
2023/05/10 01:06:23;;;;;;;2.95;2.72;;;;;;;16.19;73.83;100432.34;5034155;28;20049;-77
2023/05/10 01:08:52;;;;;;;2.65;2.20;;;;;;;16.23;72.44;100425.84;5034082;28;20041;-78
2023/05/10 01:11:21;;;;;;;2.40;2.20;;;;;;;16.11;72.47;100423.72;5033667;28;20033;-77
2023/05/10 01:13:56;;;;;;;2.55;2.33;;;;;;;15.94;73.41;100427.25;5034128;28;20060;-76
2023/05/10 01:16:26;;;;;;;2.45;2.00;;;;;;;16.01;72.05;100418.50;5051976;28;20041;-79
2023/05/10 01:18:55;;;;;;;2.97;2.00;;;;;;;16.06;72.25;100423.06;5051761;28;20041;-78
2023/05/10 01:21:32;;;;;;;3.42;2.10;;;;;;;15.90;74.55;100423.47;5033895;28;20040;-77
2023/05/10 01:24:09;;;;;;;2.38;2.17;;;;;;;15.69;72.15;100426.00;5051809;28;20049;-77
2023/05/10 01:26:58;;;;;;;3.35;1.77;;;;;;;15.65;72.31;100416.75;5051863;28;20056;-77
2023/05/10 01:29:45;;;;;;;2.97;2.53;;;;;;;15.97;72.69;100426.63;5049879;28;20048;-78
2023/05/10 01:32:31;;;;;;;2.38;1.98;;;;;;;15.79;71.21;100422.94;5030070;28;20060;-78
2023/05/10 01:35:19;;;;;;;1.98;1.85;;;;;;;15.73;71.84;100413.19;5030573;28;20046;-77
2023/05/10 01:38:13;;;;;;;1.98;1.88;;;;;;;16.02;71.36;100413.81;5030463;28;20053;-77
2023/05/10 01:40:59;;;;;;;2.50;2.08;;;;;;;15.93;70.09;100419.31;5031392;28;20385;-76
2023/05/10 01:43:33;;;;;;;1.52;1.42;;;;;;;15.68;71.04;100416.91;5031767;28;20407;-76
2023/05/10 01:46:10;;;;;;;2.10;1.90;;;;;;;15.70;71.28;100420.16;5031735;28;20038;-78
2023/05/10 01:48:46;;;;;;;5.70;2.25;;;;;;;15.73;71.25;100415.94;5030096;28;20049;-77
2023/05/10 01:51:21;;;;;;;2.50;2.30;;;;;;;15.78;72.02;100415.81;5030256;28;20060;-78
2023/05/10 01:53:51;;;;;;;3.20;2.00;;;;;;;15.52;71.78;100419.28;5030542;28;20053;-77
2023/05/10 01:56:24;;;;;;;1.88;1.55;;;;;;;15.59;71.31;100414.13;5031699;28;20045;-77
2023/05/10 01:58:54;;;;;;;2.75;2.13;;;;;;;15.59;74.86;100419.63;5031610;28;20049;-77
2023/05/10 02:01:23;;;;;;;2.65;2.45;;;;;;;15.43;74.19;100410.97;5029835;28;20061;-77
2023/05/10 02:03:52;;;;;;;2.55;2.08;;;;;;;15.44;74.39;100414.53;5031476;28;20519;-77
2023/05/10 02:06:22;;;;;;;2.83;1.67;;;;;;;15.44;75.22;100429.13;5031468;28;20068;-76
2023/05/10 02:08:51;;;;;;;2.85;2.00;;;;;;;15.46;74.95;100434.34;5031450;28;20049;-77
2023/05/10 02:11:20;;;;;;;2.08;1.65;;;;;;;15.28;77.02;100436.19;5029959;28;20049;-77
2023/05/10 02:13:51;;;;;;;3.45;2.03;;;;;;;15.25;76.22;100436.81;5030157;28;20408;-77
2023/05/10 02:16:23;;;;;;;2.00;1.80;;;;;;;15.37;77.62;100422.44;5015218;28;20515;-77
2023/05/10 02:18:52;;;;;;;3.10;2.08;;;;;;;15.26;78.47;100439.25;5035115;28;20045;-78
2023/05/10 02:21:22;;;;;;;3.28;1.80;;;;;;;15.26;79.58;100436.47;5034815;28;20048;-78
2023/05/10 02:23:52;;;;;;;3.55;2.00;;;;;;;15.28;82.04;100428.72;5034853;28;20050;-79
2023/05/10 02:26:23;;;;;;;3.55;2.20;;;;;;;15.24;81.35;100438.75;5033564;28;20053;-79
2023/05/10 02:28:54;;;;;;;3.25;2.38;;;;;;;15.00;82.37;100437.13;5033425;28;20049;-79
2023/05/10 02:31:23;;;;;;;2.40;2.20;;;;;;;14.96;85.69;100433.38;5038594;28;20045;-78
2023/05/10 02:33:52;;;;;;;4.15;2.85;;;;;;;14.91;86.85;100433.53;5054698;28;20048;-79
2023/05/10 02:36:22;;;;;;;2.35;2.00;;;;;;;14.85;87.33;100419.03;5054649;28;20047;-79
2023/05/10 02:38:52;;;;;;;1.98;1.88;;;;;;;14.69;89.23;100426.84;5054328;28;20049;-79
2023/05/10 02:41:22;;;;;;;4.82;2.67;;;;;;;14.72;90.00;100437.22;5054471;28;20052;-79
2023/05/10 02:43:53;;;;;;;2.65;2.17;;;;;;;14.58;91.32;100436.47;5054462;28;20725;-79
2023/05/10 02:46:21;;;;;;;3.22;2.92;;;;;;;14.42;92.58;100430.50;5036532;28;20045;-79
2023/05/10 02:48:49;;;;;;;5.10;2.30;;;;;;;14.15;91.66;100421.97;5054367;28;20049;-79
2023/05/10 02:51:19;;;;;;;4.88;2.47;;;;;;;14.33;94.44;100439.47;5054045;28;20514;-79
2023/05/10 02:53:50;;;;;;;2.53;2.33;;;;;;;14.16;92.01;100431.03;5054343;28;20051;-79
2023/05/10 02:56:36;;;;;;;6.00;2.97;;;;;;;14.14;92.45;100431.38;5036348;28;20159;-79
2023/05/10 02:59:04;;;;;;;4.13;2.38;;;;;;;14.06;96.30;100432.06;5054236;28;20057;-82
2023/05/10 03:01:32;;;;;;;3.22;2.22;;;;;;;14.03;96.61;100419.75;5053911;28;20041;-79
2023/05/10 03:04:00;;;;;;;5.80;3.15;;;;;;;14.00;98.37;100427.78;5053935;28;20045;-79
2023/05/10 03:06:28;;;;;;;3.92;2.78;;;;;;;14.05;100.00;100425.78;5019545;28;20060;-81
2023/05/10 03:08:57;;;;;;;4.60;2.92;;;;;;;13.80;100.00;100418.84;5053993;28;20048;-79
2023/05/10 03:11:32;;;;;;;3.72;2.63;;;;;;;13.93;100.00;100423.53;5035218;28;20041;-80
2023/05/10 03:14:17;;;;;;;3.10;2.80;;;;;;;13.75;99.21;100421.69;5036169;28;20045;-79
2023/05/10 03:17:03;;;;;;;3.83;2.80;;;;;;;13.65;100.00;100429.00;5035981;28;20056;-80
2023/05/10 03:19:43;;;;;;;5.07;2.72;;;;;;;13.76;100.00;100429.66;5053782;28;20407;-81
2023/05/10 03:22:19;;;;;;;4.07;2.70;;;;;;;13.69;100.00;100424.53;5019577;28;20475;-81
2023/05/10 03:24:49;;;;;;;2.72;2.38;;;;;;;13.95;100.00;100418.53;5053712;28;20052;-80
2023/05/10 03:27:18;;;;;;;4.22;2.70;;;;;;;13.86;100.00;100423.13;5053416;28;20060;-80
2023/05/10 03:29:46;;;;;;;6.15;2.90;;;;;;;13.53;100.00;100415.78;5053666;28;20041;-80
2023/05/10 03:32:15;;;;;;;4.00;2.72;;;;;;;13.56;100.00;100408.84;5035167;28;20072;-81
2023/05/10 03:34:43;;;;;;;3.90;2.67;;;;;;;13.70;100.00;100417.13;5053677;28;20049;-80
2023/05/10 03:37:11;;;;;;;2.67;2.47;;;;;;;13.51;100.00;100408.94;5035989;28;20052;-80
2023/05/10 03:39:39;;;;;;;4.85;2.88;;;;;;;13.74;100.00;100398.88;5053485;28;20071;-80
2023/05/10 03:42:11;;;;;;;3.53;2.80;;;;;;;13.64;100.00;100401.84;5019909;28;20041;-82
2023/05/10 03:44:39;;;;;;;2.72;2.47;;;;;;;13.42;100.00;100401.38;5047270;28;20051;-80
2023/05/10 03:47:08;;;;;;;3.03;2.72;;;;;;;13.53;100.00;100413.03;5034605;28;20040;-80
2023/05/10 03:49:37;;;;;;;7.03;2.90;;;;;;;13.39;100.00;100401.19;5034691;28;20049;-81
2023/05/10 03:52:05;;;;;;;3.90;2.72;;;;;;;13.49;100.00;100405.69;5034340;28;20037;-80
2023/05/10 03:54:33;;;;;;;4.40;3.78;;;;;;;13.59;100.00;100394.50;5034603;28;20129;-81
2023/05/10 03:57:01;;;;;;;3.28;2.90;;;;;;;13.51;100.00;100409.78;5052251;28;20484;-81
2023/05/10 03:59:30;;;;;;;4.97;2.80;;;;;;;13.51;100.00;100411.69;5034542;28;20518;-81
2023/05/10 04:01:58;;;;;;;4.72;3.10;;;;;;;13.53;100.00;100410.28;5048795;28;20048;-82
2023/05/10 04:04:26;;;;;;;6.65;2.70;;;;;;;13.39;100.00;100404.72;5034150;28;20044;-81
2023/05/10 04:06:54;;;;;;;3.97;2.47;;;;;;;13.29;100.00;100402.16;5034163;28;20040;-82
2023/05/10 04:09:22;;;;;;;3.72;2.90;;;;;;;13.36;100.00;100410.03;5034167;28;20479;-82
2023/05/10 04:11:50;;;;;;;3.10;2.58;;;;;;;13.48;100.00;100396.63;5052145;28;20395;-82
2023/05/10 04:14:18;;;;;;;4.68;2.67;;;;;;;13.49;100.00;100403.75;5052969;28;20475;-83
2023/05/10 04:16:46;;;;;;;3.40;2.60;;;;;;;13.67;100.00;100396.53;5052416;28;20045;-82
2023/05/10 04:19:14;;;;;;;5.47;3.08;;;;;;;13.48;100.00;100396.63;5034631;28;20041;-83
2023/05/10 04:21:42;;;;;;;2.85;2.55;;;;;;;13.30;100.00;100396.38;5052167;28;20045;-83
2023/05/10 04:24:10;;;;;;;4.95;3.30;;;;;;;13.28;100.00;100395.03;5033508;28;20072;-84
2023/05/10 04:26:40;;;;;;;3.67;2.85;;;;;;;13.40;100.00;100400.06;5052201;28;20056;-83
2023/05/10 04:29:09;;;;;;;3.80;2.92;;;;;;;13.43;100.00;100404.94;5052415;28;20469;-84
2023/05/10 04:31:37;;;;;;;4.18;3.22;;;;;;;13.46;100.00;100400.75;5033877;28;20052;-83
2023/05/10 04:34:05;;;;;;;3.28;2.97;;;;;;;13.31;100.00;100403.50;5052498;28;20391;-83
2023/05/10 04:36:35;;;;;;;2.92;2.65;;;;;;;13.37;100.00;100406.97;5052731;28;20041;-82
2023/05/10 04:39:04;;;;;;;4.18;2.70;;;;;;;13.38;100.00;100403.09;5052134;28;20400;-82
2023/05/10 04:41:31;;;;;;;5.15;2.60;;;;;;;13.40;100.00;100413.81;5052248;28;20067;-83
2023/05/10 04:43:59;;;;;;;3.45;2.65;;;;;;;13.62;100.00;100415.88;5034638;28;20048;-83
2023/05/10 04:46:27;;;;;;;3.75;3.00;;;;;;;13.52;100.00;100407.81;5052243;28;20052;-83
2023/05/10 04:48:55;;;;;;;3.20;2.88;;;;;;;13.63;100.00;100408.47;5052322;28;20479;-84
2023/05/10 04:51:23;;;;;;;3.22;2.65;;;;;;;13.63;100.00;100406.50;5034109;28;20056;-83
2023/05/10 04:53:51;;;;;;;3.72;2.95;;;;;;;13.62;100.00;100410.38;5052141;28;20056;-83
2023/05/10 04:56:33;;;;;;;5.38;3.28;;;;;;;13.59;100.00;100413.72;5052100;28;20472;-85
2023/05/10 04:59:01;;;;;;;3.65;2.75;;;;;;;13.43;100.00;100418.69;5052054;28;20052;-82
2023/05/10 05:01:29;;;;;;;3.92;3.17;;;;;;;13.35;100.00;100414.69;5051993;28;20056;-82
2023/05/10 05:03:58;;;;;;;5.18;2.88;;;;;;;13.23;100.00;100420.69;5051878;28;20480;-82
2023/05/10 05:06:27;;;;;;;3.08;2.72;;;;;;;13.16;100.00;100420.28;5052009;28;20041;-83
2023/05/10 05:08:55;;;;;;;3.97;2.78;;;;;;;13.07;100.00;100411.91;5034295;28;20052;-84
2023/05/10 05:11:22;;;;;;;3.67;2.70;;;;;;;13.19;100.00;100414.16;5051908;28;20049;-85
2023/05/10 05:13:51;;;;;;;4.57;3.28;;;;;;;13.36;100.00;100421.03;5051990;28;20056;-83
2023/05/10 05:16:19;;;;;;;4.38;2.95;;;;;;;13.59;100.00;100410.19;5051989;28;20037;-76
2023/05/10 05:18:47;;;;;;;6.57;3.10;;;;;;;13.89;100.00;100421.69;5051198;28;20045;-76
2023/05/10 05:21:17;;;;;;;4.43;2.83;;;;;;;14.28;100.00;100416.75;5051915;28;20049;-76
2023/05/10 05:23:45;;;;;;;4.15;2.70;;;;;;;14.48;100.00;100424.53;5051750;28;20411;-75
2023/05/10 05:26:14;;;;;;;2.85;2.60;;;;;;;14.52;100.00;100416.50;5033843;28;20384;-76
2023/05/10 05:28:42;;;;;;;5.07;3.15;;;;;;;14.69;98.22;100420.50;5051994;28;20049;-75
2023/05/10 05:31:10;;;;;;;4.00;2.35;;;;;;;14.45;98.90;100430.69;5051582;28;20503;-75
2023/05/10 05:33:39;;;;;;;3.22;2.80;;;;;;;14.81;97.10;100415.28;5052043;28;20052;-76
2023/05/10 05:36:08;;;;;;;3.55;2.65;;;;;;;15.13;95.91;100429.13;5032918;28;20510;-76
2023/05/10 05:38:35;;;;;;;4.63;3.00;;;;;;;14.67;98.16;100418.09;5051073;28;20045;-76
2023/05/10 05:41:03;;;;;;;3.53;3.17;;;;;;;14.98;95.97;100422.03;5051164;28;20052;-75
2023/05/10 05:43:31;;;;;;;3.20;2.83;;;;;;;14.93;95.71;100419.41;5051704;28;20392;-75
2023/05/10 05:45:59;;;;;;;2.35;2.15;;;;;;;14.81;95.51;100417.25;5034086;28;20049;-77
2023/05/10 05:48:29;;;;;;;3.65;2.28;;;;;;;15.01;96.96;100422.22;5051766;28;20075;-77
2023/05/10 05:50:57;;;;;;;5.97;2.53;;;;;;;14.77;97.89;100417.84;5035109;28;20041;-77
2023/05/10 05:53:25;;;;;;;2.95;2.35;;;;;;;14.79;98.10;100417.53;5055687;28;20048;-77
2023/05/10 05:55:58;;;;;;;2.42;2.22;;;;;;;14.89;97.09;100410.97;5055757;28;20480;-77
2023/05/10 05:58:26;;;;;;;3.58;2.40;;;;;;;14.67;95.95;100414.50;5055631;28;20052;-77
2023/05/10 06:00:54;;;;;;;3.83;2.53;;;;;;;14.78;96.72;100424.97;5055367;28;20052;-78
2023/05/10 06:03:22;;;;;;;4.00;2.38;;;;;;;14.57;96.47;100424.63;5055422;28;20049;-77
2023/05/10 06:05:50;;;;;;;4.45;2.40;;;;;;;14.68;95.34;100425.22;5037664;28;20499;-77
2023/05/10 06:08:18;;;;;;;4.55;2.90;;;;;;;14.35;97.42;100433.66;5055380;28;20045;-77
2023/05/10 06:10:46;;;;;;;2.38;2.17;;;;;;;14.37;95.22;100432.22;5037577;28;20049;-77
2023/05/10 06:13:14;;;;;;;4.78;3.05;;;;;;;14.27;97.91;100426.16;5055279;28;20376;-77
2023/05/10 06:15:42;;;;;;;3.63;2.40;;;;;;;14.43;97.00;100438.44;5037523;28;20387;-77
2023/05/10 06:18:10;;;;;;;3.03;2.60;;;;;;;14.52;95.11;100433.81;5055148;28;20041;-77
2023/05/10 06:20:38;;;;;;;4.07;2.60;;;;;;;14.40;95.79;100421.72;5055078;28;20051;-77
2023/05/10 06:23:06;;;;;;;3.13;2.03;;;;;;;14.65;94.67;100425.81;5055105;28;20045;-77
2023/05/10 06:25:33;;;;;;;2.72;2.03;;;;;;;14.78;93.98;100430.50;5054990;28;20052;-77
2023/05/10 06:28:01;;;;;;;2.63;2.25;;;;;;;14.67;93.93;100431.84;5055004;28;20045;-78
2023/05/10 06:30:29;;;;;;;7.88;2.28;;;;;;;14.86;93.10;100430.88;5054877;28;20060;-77
2023/05/10 06:32:57;;;;;;;4.88;2.72;;;;;;;15.03;91.76;100428.25;5036997;28;20053;-78
2023/05/10 06:35:25;;;;;;;5.25;2.40;;;;;;;14.87;92.26;100427.00;5054835;28;20037;-76
2023/05/10 06:37:54;;;;;;;3.33;2.10;;;;;;;14.69;91.74;100435.09;5054761;28;20052;-77
2023/05/10 06:40:22;;;;;;;3.88;2.20;;;;;;;14.60;92.95;100429.53;5054734;28;20045;-78
2023/05/10 06:42:50;;;;;;;4.05;2.30;;;;;;;14.74;93.85;100434.16;5054733;28;20068;-78
2023/05/10 06:45:18;;;;;;;2.53;1.92;;;;;;;14.73;92.33;100435.28;5036821;28;20053;-78
2023/05/10 06:47:46;;;;;;;2.22;2.00;;;;;;;14.55;92.12;100434.31;5054625;28;20487;-78
2023/05/10 06:50:14;;;;;;;2.78;2.17;;;;;;;14.71;91.86;100427.34;5054480;28;20052;-78
2023/05/10 06:52:43;;;;;;;2.95;1.90;;;;;;;14.77;91.38;100422.56;5054565;28;20044;-77
2023/05/10 06:55:11;;;;;;;2.83;2.00;;;;;;;14.69;92.31;100429.59;5054396;28;20052;-78
2023/05/10 06:57:39;;;;;;;3.58;1.90;;;;;;;14.46;92.11;100435.06;5054400;28;20423;-77
2023/05/10 07:00:09;;;;;;;3.60;1.90;;;;;;;14.67;92.30;100439.28;5054298;28;20052;-78
2023/05/10 07:02:37;;;;;;;2.83;2.15;;;;;;;14.64;92.44;100432.47;5053884;28;20067;-78
2023/05/10 07:05:06;;;;;;;2.38;2.17;;;;;;;14.68;92.10;100424.38;5054138;28;20055;-77
2023/05/10 07:07:34;;;;;;;7.28;2.33;;;;;;;14.55;93.94;100442.56;5054158;28;20045;-78
2023/05/10 07:10:02;;;;;;;3.67;2.17;;;;;;;14.52;93.31;100444.84;5053966;28;20371;-78
2023/05/10 07:12:30;;;;;;;3.50;2.05;;;;;;;14.38;94.59;100447.63;5054150;28;20052;-78
2023/05/10 07:14:58;;;;;;;3.55;2.47;;;;;;;14.43;95.41;100441.19;5054058;28;20040;-78
2023/05/10 07:17:26;;;;;;;3.08;2.13;;;;;;;14.46;94.15;100440.56;5054029;28;20400;-78
2023/05/10 07:19:54;;;;;;;3.25;2.33;;;;;;;14.52;94.46;100461.34;5053917;28;20060;-77
2023/05/10 07:22:22;;;;;;;2.80;2.40;;;;;;;14.53;93.69;100451.16;5053968;28;20491;-77
2023/05/10 07:24:50;;;;;;;3.42;2.20;;;;;;;14.71;93.72;100449.38;5053928;28;20045;-78
2023/05/10 07:27:18;;;;;;;2.60;2.00;;;;;;;14.75;92.62;100447.66;5035397;28;20055;-78
2023/05/10 07:29:46;;;;;;;4.63;2.15;;;;;;;14.64;94.37;100451.75;5053579;28;20400;-77
2023/05/10 07:32:14;;;;;;;2.58;2.22;;;;;;;14.75;93.27;100453.16;5031995;28;20519;-77
2023/05/10 07:34:42;;;;;;;3.75;2.28;;;;;;;14.64;93.33;100449.00;5033819;28;20057;-77
2023/05/10 07:37:10;;;;;;;2.75;2.40;;;;;;;14.29;95.11;100454.16;5033731;28;20049;-77
2023/05/10 07:39:38;;;;;;;4.13;2.25;;;;;;;14.51;94.60;100451.47;5033656;28;20041;-77
2023/05/10 07:42:06;;;;;;;4.80;2.58;;;;;;;14.39;95.37;100462.22;5033637;28;20049;-77
2023/05/10 07:44:34;;;;;;;2.55;2.30;;;;;;;14.42;95.74;100467.09;5033548;28;20046;-77
2023/05/10 07:47:01;;;;;;;4.13;2.72;;;;;;;14.61;95.39;100474.38;5033428;28;20049;-78
2023/05/10 07:49:29;;;;;;;3.05;2.50;;;;;;;14.45;94.41;100474.75;5033507;28;20061;-77
2023/05/10 07:51:57;;;;;;;3.70;2.15;;;;;;;14.11;94.97;100476.81;5031669;28;20060;-78
2023/05/10 07:54:25;;;;;;;3.13;2.83;;;;;;;13.81;97.95;100469.97;5033448;28;20399;-77
2023/05/10 07:56:53;;;;;;;4.10;2.38;;;;;;;14.30;95.81;100475.88;5031657;28;20053;-77
2023/05/10 07:59:21;;;;;;;2.35;2.00;;;;;;;14.13;97.45;100476.50;5033287;28;20042;-78
2023/05/10 08:01:49;;;;;;;3.85;2.85;;;;;;;14.27;97.39;100483.94;5031595;28;20053;-77
2023/05/10 08:04:17;;;;;;;2.75;2.47;;;;;;;14.22;96.27;100480.16;5033173;28;20050;-77
2023/05/10 08:06:45;;;;;;;2.63;2.22;;;;;;;14.03;96.88;100483.03;5031377;28;20053;-77
2023/05/10 08:09:13;;;;;;;4.00;2.28;;;;;;;14.28;96.38;100486.41;5033071;28;20057;-77
2023/05/10 08:11:41;;;;;;;3.65;2.28;;;;;;;14.03;97.02;100493.22;5020596;28;20457;-76
2023/05/10 08:14:09;;;;;;;4.45;2.40;;;;;;;14.30;96.01;100483.31;5011829;28;20510;-78
2023/05/10 08:16:37;;;;;;;2.45;2.25;;;;;;;14.06;97.80;100496.19;5011124;28;20054;-79
2023/05/10 08:19:05;;;;;;;2.85;2.42;;;;;;;14.04;97.37;100492.94;5012447;28;20484;-79
2023/05/10 08:21:33;;;;;;;3.63;2.30;;;;;;;13.91;98.99;100493.72;5010883;28;20405;-80
2023/05/10 08:24:01;;;;;;;2.78;2.42;;;;;;;13.85;99.67;100498.50;5012689;28;20049;-79
2023/05/10 08:26:30;;;;;;;3.50;2.92;;;;;;;14.24;98.79;100488.91;5010314;28;20061;-81
2023/05/10 08:28:58;;;;;;;2.28;2.08;;;;;;;14.21;98.26;100500.56;5012048;28;20485;-80
2023/05/10 08:31:26;;;;;;;4.30;2.60;;;;;;;14.21;98.31;100500.56;5010971;28;20057;-80
2023/05/10 08:33:54;;;;;;;2.50;2.28;;;;;;;14.16;97.21;100499.84;5012914;28;20480;-79
2023/05/10 08:36:24;;;;;;;4.30;2.58;;;;;;;14.02;99.43;100495.16;5010978;28;20045;-87
2023/05/10 08:38:52;;;;;;;4.05;2.35;;;;;;;13.97;100.00;100496.06;5013087;28;20045;-82
2023/05/10 08:41:21;;;;;;;3.10;2.67;;;;;;;14.34;99.23;100506.34;5012929;28;20065;-81
2023/05/10 08:43:50;;;;;;;3.47;2.70;;;;;;;14.40;97.67;100493.28;5012803;28;20062;-81
2023/05/10 08:46:19;;;;;;;3.50;2.45;;;;;;;14.03;99.79;100494.03;5012556;28;20046;-81
2023/05/10 08:48:50;;;;;;;5.32;2.55;;;;;;;14.01;100.00;100495.44;5012622;28;20061;-81
2023/05/10 08:51:21;;;;;;;4.30;2.90;;;;;;;14.06;100.00;100492.59;5012545;28;20077;-81
2023/05/10 08:53:50;;;;;;;3.13;2.67;;;;;;;13.79;100.00;100488.72;5012959;28;20058;-81
2023/05/10 08:56:20;;;;;;;3.80;2.65;;;;;;;13.96;100.00;100494.44;5012659;28;20045;-81
2023/05/10 08:58:49;;;;;;;5.32;2.38;;;;;;;14.38;100.00;100494.41;5012526;28;20057;-81
2023/05/10 09:01:18;;;;;;;9.88;3.38;;;;;;;14.63;100.00;100506.00;5010812;28;20042;-81
2023/05/10 09:03:47;;;;;;;15.15;3.38;;;;;;;14.86;98.72;100508.81;5012541;28;20046;-81
2023/05/10 09:06:15;;;;;;;5.68;2.35;;;;;;;14.72;99.65;100503.31;5012386;28;20057;-81
2023/05/10 09:08:44;;;;;;;2.60;2.40;;;;;;;14.49;98.69;100505.22;5012427;28;20388;-81
2023/05/10 09:11:13;;;;;;;2.83;2.63;;;;;;;14.60;99.34;100506.63;5012306;28;20045;-82
2023/05/10 09:13:42;;;;;;;5.28;2.30;;;;;;;14.75;99.54;100508.25;5012706;28;20046;-81
2023/05/10 09:16:10;;;;;;;2.95;2.70;;;;;;;14.71;99.07;100504.44;5012382;28;20053;-81
2023/05/10 09:18:49;;;;;;;4.38;2.55;;;;;;;14.91;96.84;100502.41;5012326;28;20046;-82
2023/05/10 09:21:19;;;;;;;3.25;2.20;;;;;;;15.08;96.09;100504.47;5012604;28;20402;-81
2023/05/10 09:23:49;;;;;;;3.15;2.47;;;;;;;14.64;97.67;100496.63;5012277;28;20061;-81
2023/05/10 09:26:22;;;;;;;4.53;2.30;;;;;;;14.91;95.43;100499.66;5018048;28;20519;-81
2023/05/10 09:28:52;;;;;;;2.95;2.53;;;;;;;14.85;97.10;100484.34;5018694;28;20042;-81
2023/05/10 09:31:20;;;;;;;3.92;2.10;;;;;;;14.82;96.47;100493.25;5022538;28;20049;-82
2023/05/10 09:33:49;;;;;;;2.22;2.00;;;;;;;14.75;96.30;100497.25;5038557;28;20046;-82
2023/05/10 09:36:17;;;;;;;2.67;2.47;;;;;;;14.78;96.79;100488.34;5038472;28;20045;-81
2023/05/10 09:38:51;;;;;;;4.50;2.70;;;;;;;14.85;96.54;100484.34;5038454;28;20056;-82
2023/05/10 09:41:21;;;;;;;2.35;2.10;;;;;;;14.75;98.64;100493.66;5038460;28;20056;-82
2023/05/10 09:43:50;;;;;;;3.13;2.03;;;;;;;14.90;97.06;100486.97;5038484;28;20041;-82
2023/05/10 09:46:17;;;;;;;2.30;2.00;;;;;;;14.83;95.31;100487.44;5038441;28;20120;-82
2023/05/10 09:48:47;;;;;;;2.95;2.00;;;;;;;14.96;96.41;100480.22;5038323;28;20045;-82
2023/05/10 09:51:20;;;;;;;2.42;2.22;;;;;;;15.18;95.79;100484.13;5038352;28;20045;-82
2023/05/10 09:53:50;;;;;;;3.38;2.00;;;;;;;15.27;95.37;100484.19;5038327;28;20045;-82
2023/05/10 09:56:35;;;;;;;2.38;2.17;;;;;;;15.49;94.85;100488.84;5020082;28;20389;-82
2023/05/10 09:59:04;;;;;;;2.33;2.08;;;;;;;15.79;93.56;100494.69;5038310;28;20052;-82
2023/05/10 10:01:33;;;;;;;3.03;2.15;;;;;;;15.52;93.73;100487.41;5038293;28;20042;-82
2023/05/10 10:04:07;;;;;;;2.95;2.00;;;;;;;15.34;93.35;100473.50;5038203;28;20065;-82
2023/05/10 10:06:39;;;;;;;3.00;1.50;;;;;;;15.50;93.87;100482.19;5038225;28;20068;-82
2023/05/10 10:09:08;;;;;;;2.20;1.70;;;;;;;15.47;91.93;100488.34;5038173;28;20049;-82
2023/05/10 10:11:37;;;;;;;2.33;2.13;;;;;;;15.58;91.40;100478.69;5038179;28;20050;-82
2023/05/10 10:14:05;;;;;;;3.45;2.35;;;;;;;15.40;93.18;100479.72;5038157;28;20060;-82
2023/05/10 10:16:33;;;;;;;2.50;2.08;;;;;;;15.67;93.60;100475.97;5037984;28;20511;-82
2023/05/10 10:19:01;;;;;;;4.78;2.05;;;;;;;15.63;92.49;100476.94;5037910;28;20385;-82
2023/05/10 10:21:30;;;;;;;2.10;1.90;;;;;;;15.91;93.97;100473.94;5020331;28;20041;-84
2023/05/10 10:23:58;;;;;;;2.58;2.15;;;;;;;15.93;94.10;100471.72;5037874;28;20484;-85
2023/05/10 10:26:27;;;;;;;2.55;2.03;;;;;;;15.96;93.41;100471.91;5036522;28;20045;-85
2023/05/10 10:29:06;;;;;;;4.28;2.40;;;;;;;16.06;93.30;100473.56;5037816;28;20051;-84
2023/05/10 10:32:13;;;;;;;3.40;1.80;;;;;;;16.06;93.78;100476.31;5016022;28;20054;-84
2023/05/10 10:34:41;;;;;;;3.88;2.10;;;;;;;16.16;94.12;100466.94;5017961;28;20041;-85
2023/05/10 10:37:09;;;;;;;2.75;2.20;;;;;;;15.89;94.93;100470.72;5015388;28;20485;-84
2023/05/10 10:39:37;;;;;;;2.67;2.40;;;;;;;16.02;94.36;100480.84;5014863;28;20046;-84
2023/05/10 10:42:05;;;;;;;3.03;2.55;;;;;;;16.17;97.76;100476.03;5014894;28;20088;-84
2023/05/10 10:44:37;;;;;;;2.38;2.17;;;;;;;16.24;95.71;100477.16;5014818;28;20057;-84
2023/05/10 10:47:11;;;;;;;3.75;2.83;;;;;;;16.46;97.38;100477.38;5013518;28;20061;-83
2023/05/10 10:49:39;;;;;;;2.85;2.53;;;;;;;16.48;97.15;100475.13;5014619;28;20049;-83
2023/05/10 10:52:30;;;;;;;3.50;2.85;;;;;;;16.41;97.58;100470.06;5014653;28;20045;-84
2023/05/10 10:54:58;;;;;;;3.40;2.50;;;;;;;16.53;96.45;100466.69;5014685;28;20042;-83
2023/05/10 10:57:29;;;;;;;4.88;3.00;;;;;;;16.47;95.98;100456.91;5013394;28;20049;-83
2023/05/10 11:00:21;;;;;;;4.45;2.75;;;;;;;16.46;96.69;100469.09;5014651;28;20050;-84
2023/05/10 11:02:53;;;;;;;2.10;1.90;;;;;;;16.29;95.62;100462.41;5014495;28;20508;-83
2023/05/10 11:05:36;;;;;;;2.40;2.20;;;;;;;16.41;94.15;100466.50;5014459;28;20045;-83
2023/05/10 11:08:16;;;;;;;2.42;2.13;;;;;;;16.11;90.99;100453.25;5014755;28;20046;-83
2023/05/10 11:10:59;;;;;;;2.03;1.88;;;;;;;16.04;93.25;100455.69;5014336;28;20041;-83
2023/05/10 11:13:31;;;;;;;2.78;1.92;;;;;;;16.20;91.54;100456.03;5014346;28;20485;-83
2023/05/10 11:16:13;;;;;;;2.42;2.10;;;;;;;16.01;92.30;100454.38;5014265;28;20057;-83
2023/05/10 11:18:53;;;;;;;4.40;2.50;;;;;;;15.76;94.19;100450.34;5012446;28;20054;-83
2023/05/10 11:21:21;;;;;;;2.58;2.38;;;;;;;15.92;94.13;100447.97;5014169;28;20408;-83
2023/05/10 11:23:51;;;;;;;2.53;2.33;;;;;;;16.12;94.03;100443.84;5014100;28;20041;-84
2023/05/10 11:26:22;;;;;;;2.75;2.55;;;;;;;16.26;95.11;100440.97;5014040;28;20052;-84
2023/05/10 11:28:54;;;;;;;2.45;2.25;;;;;;;16.39;94.67;100439.19;5013923;28;20102;-83
2023/05/10 11:31:23;;;;;;;4.95;2.60;;;;;;;16.42;96.33;100443.25;5017701;28;20046;-83
2023/05/10 11:33:54;;;;;;;2.50;2.30;;;;;;;16.42;98.87;100437.75;5033610;28;20054;-83
2023/05/10 11:36:27;;;;;;;3.30;2.78;;;;;;;16.40;97.64;100451.88;5033686;28;20495;-83
2023/05/10 11:38:56;;;;;;;3.53;2.53;;;;;;;16.50;97.40;100443.28;5033623;28;20495;-84